Time;durP1;ratioP1;P1;durP2;ratioP2;P2;SDS_P1;SDS_P2;PMS_P1;PMS_P2;Temp;Humidity;BMP_temperature;BMP_pressure;BME280_temperature;BME280_humidity;BME280_pressure;Samples;Min_cycle;Max_cycle;Signal;HPM_P1;HPM_P2
2023/12/23 00:00:37;;;;;;;;;;;;;;;20.61;32.77;94608.13;10515836;28;2111;-60
2023/12/23 00:05:38;;;;;;;;;;;;;;;20.55;32.96;94604.09;10515991;28;2064;-60
2023/12/23 00:10:38;;;;;;;;;;;;;;;20.52;32.90;94623.13;10507281;28;1828;-60
2023/12/23 00:15:38;;;;;;;;;;;;;;;20.45;33.02;94620.13;10517474;28;1978;-60
2023/12/23 00:20:38;;;;;;;;;;;;;;;20.41;33.61;94629.69;10521778;28;1901;-60
2023/12/23 00:25:39;;;;;;;;;;;;;;;20.40;32.97;94611.56;10515765;28;1892;-60
2023/12/23 00:30:39;;;;;;;;;;;;;;;20.34;33.22;94634.59;10517276;28;1881;-60
2023/12/23 00:35:41;;;;;;;;;;;;;;;20.30;33.30;94633.63;10520424;28;1884;-60
2023/12/23 00:40:41;;;;;;;;;;;;;;;20.26;33.50;94633.44;10516844;28;1951;-60
2023/12/23 00:45:41;;;;;;;;;;;;;;;20.23;33.48;94659.59;10512801;28;2279;-60
2023/12/23 00:50:42;;;;;;;;;;;;;;;20.20;33.52;94671.47;10513951;28;1864;-60
2023/12/23 00:55:42;;;;;;;;;;;;;;;20.18;33.50;94688.59;10510873;28;1864;-60
2023/12/23 01:00:42;;;;;;;;;;;;;;;20.16;33.57;94674.97;10510972;28;1918;-60
2023/12/23 01:05:42;;;;;;;;;;;;;;;20.11;33.75;94699.53;10517793;28;1865;-60
2023/12/23 01:10:43;;;;;;;;;;;;;;;20.09;33.44;94672.72;10512841;28;1955;-60
2023/12/23 01:15:43;;;;;;;;;;;;;;;20.07;33.63;94692.53;10520416;28;5022;-60
2023/12/23 01:20:43;;;;;;;;;;;;;;;20.01;33.72;94710.25;10514517;28;1969;-60
2023/12/23 01:25:44;;;;;;;;;;;;;;;20.01;33.48;94712.88;10496666;28;1985;-60
2023/12/23 01:30:45;;;;;;;;;;;;;;;19.99;33.34;94727.44;10517988;28;1852;-61
2023/12/23 01:35:45;;;;;;;;;;;;;;;19.94;33.50;94707.25;10508507;28;1922;-60
2023/12/23 01:40:46;;;;;;;;;;;;;;;19.94;33.55;94703.84;10516763;28;1976;-59
2023/12/23 01:45:46;;;;;;;;;;;;;;;19.89;33.56;94731.03;10518988;28;1994;-60
2023/12/23 01:50:46;;;;;;;;;;;;;;;19.86;33.48;94707.16;10511831;28;2075;-60
2023/12/23 01:55:46;;;;;;;;;;;;;;;19.83;33.72;94720.88;10514203;28;1853;-59
2023/12/23 02:00:46;;;;;;;;;;;;;;;19.82;33.70;94737.75;10487724;28;1916;-60
2023/12/23 02:05:47;;;;;;;;;;;;;;;19.78;33.73;94744.66;10508888;28;2298;-61
2023/12/23 02:10:47;;;;;;;;;;;;;;;19.76;33.60;94758.13;10493586;28;1780;-60
2023/12/23 02:15:47;;;;;;;;;;;;;;;19.75;33.34;94789.94;10491651;28;5023;-59
2023/12/23 02:20:48;;;;;;;;;;;;;;;19.70;33.87;94795.31;10486525;28;1979;-61
2023/12/23 02:25:50;;;;;;;;;;;;;;;19.68;33.73;94779.81;10489944;28;1931;-60
2023/12/23 02:30:50;;;;;;;;;;;;;;;19.67;33.52;94814.28;10492245;28;1941;-60
2023/12/23 02:35:52;;;;;;;;;;;;;;;19.65;33.58;94835.59;10520340;28;2023;-61
2023/12/23 02:40:52;;;;;;;;;;;;;;;19.62;33.75;94811.75;10516118;28;1906;-60
2023/12/23 02:45:53;;;;;;;;;;;;;;;19.61;33.82;94821.47;10510294;28;2275;-59
2023/12/23 02:50:53;;;;;;;;;;;;;;;19.59;33.57;94846.50;10520098;28;1924;-60
2023/12/23 02:55:53;;;;;;;;;;;;;;;19.58;33.64;94844.94;10515497;28;1877;-59
2023/12/23 03:00:54;;;;;;;;;;;;;;;19.56;33.63;94842.59;10518571;28;1991;-59
2023/12/23 03:05:54;;;;;;;;;;;;;;;19.53;33.77;94871.31;10517731;28;1939;-60
2023/12/23 03:10:54;;;;;;;;;;;;;;;19.51;33.73;94891.84;10520457;28;1970;-59
2023/12/23 03:15:54;;;;;;;;;;;;;;;19.48;33.74;94887.94;10515757;28;4986;-59
2023/12/23 03:20:55;;;;;;;;;;;;;;;19.47;33.67;94889.78;10516058;28;1963;-59
2023/12/23 03:25:55;;;;;;;;;;;;;;;19.44;33.88;94900.88;10523187;28;2016;-59
2023/12/23 03:30:55;;;;;;;;;;;;;;;19.43;33.78;94922.19;10508436;28;1754;-59
2023/12/23 03:36:01;;;;;;;;;;;;;;;19.43;33.68;94919.56;10521468;28;1942;-59
2023/12/23 03:41:02;;;;;;;;;;;;;;;19.40;33.79;94926.16;10517230;28;2845;-60
2023/12/23 03:46:02;;;;;;;;;;;;;;;19.38;33.86;94917.78;10497136;28;1853;-59
2023/12/23 03:51:02;;;;;;;;;;;;;;;19.37;33.88;94920.72;10497257;28;2114;-59
2023/12/23 03:56:02;;;;;;;;;;;;;;;19.34;33.96;94932.56;10515388;28;1898;-59
2023/12/23 04:01:03;;;;;;;;;;;;;;;19.34;33.89;94935.19;10518753;28;2270;-60
2023/12/23 04:06:03;;;;;;;;;;;;;;;19.32;33.80;94942.53;10523078;28;1911;-59
2023/12/23 04:11:03;;;;;;;;;;;;;;;19.29;33.82;94950.97;10513741;28;1996;-60
2023/12/23 04:16:04;;;;;;;;;;;;;;;19.28;33.90;94949.44;10521459;28;5884;-61
2023/12/23 04:21:09;;;;;;;;;;;;;;;19.26;33.87;94962.06;10513995;28;2039;-61
2023/12/23 04:26:10;;;;;;;;;;;;;;;19.25;33.86;94963.13;10513059;28;1906;-61
2023/12/23 04:31:11;;;;;;;;;;;;;;;19.24;33.57;94960.78;10499920;28;1996;-61
2023/12/23 04:36:11;;;;;;;;;;;;;;;19.23;33.95;94964.47;10498342;28;2412;-61
2023/12/23 04:41:11;;;;;;;;;;;;;;;19.21;33.94;94959.50;10519765;28;2087;-61
2023/12/23 04:46:12;;;;;;;;;;;;;;;19.18;33.87;94949.56;10500859;28;1883;-61
2023/12/23 04:51:12;;;;;;;;;;;;;;;19.16;34.14;94956.97;10514922;28;1888;-59
2023/12/23 04:56:12;;;;;;;;;;;;;;;19.16;33.90;94961.44;10517700;28;2039;-61
2023/12/23 05:01:12;;;;;;;;;;;;;;;19.13;34.13;94959.34;10518695;28;1983;-61
2023/12/23 05:06:13;;;;;;;;;;;;;;;19.14;34.19;94972.22;10516429;28;1813;-60
2023/12/23 05:11:13;;;;;;;;;;;;;;;19.17;34.05;94953.25;10499110;28;2031;-61
2023/12/23 05:16:13;;;;;;;;;;;;;;;19.24;33.96;94964.22;10503256;28;5976;-60
2023/12/23 05:21:13;;;;;;;;;;;;;;;19.31;33.66;94971.72;10518945;28;1906;-60
2023/12/23 05:26:20;;;;;;;;;;;;;;;19.34;33.85;94950.97;10518161;28;1848;-59
2023/12/23 05:31:20;;;;;;;;;;;;;;;19.41;33.46;94954.00;10507877;28;2236;-60
2023/12/23 05:36:21;;;;;;;;;;;;;;;19.45;33.37;94946.34;10516317;28;1924;-61
2023/12/23 05:41:21;;;;;;;;;;;;;;;19.50;33.47;94930.47;10515141;28;1980;-61
2023/12/23 05:46:22;;;;;;;;;;;;;;;19.55;33.66;94945.41;10517938;28;1986;-60
2023/12/23 05:51:22;;;;;;;;;;;;;;;19.60;33.35;94945.34;10512816;28;1823;-60
2023/12/23 05:56:22;;;;;;;;;;;;;;;19.63;33.50;94939.50;10515069;28;1791;-61
2023/12/23 06:01:22;;;;;;;;;;;;;;;19.67;33.34;94948.38;10513272;28;1905;-61
2023/12/23 06:06:23;;;;;;;;;;;;;;;19.71;33.25;94952.78;10499126;28;1873;-60
2023/12/23 06:11:23;;;;;;;;;;;;;;;19.76;33.27;94949.28;10516979;28;1860;-60
2023/12/23 06:16:23;;;;;;;;;;;;;;;19.76;33.17;94951.91;10503215;28;1956;-61
2023/12/23 06:21:24;;;;;;;;;;;;;;;19.82;33.13;94964.69;10520294;28;1934;-61
2023/12/23 06:26:24;;;;;;;;;;;;;;;19.84;33.20;94961.78;10519503;28;2404;-60
2023/12/23 06:31:24;;;;;;;;;;;;;;;19.87;33.13;94972.50;10524719;28;2166;-60
2023/12/23 06:36:24;;;;;;;;;;;;;;;19.90;33.02;94960.63;10501744;28;1936;-61
2023/12/23 06:41:25;;;;;;;;;;;;;;;19.92;32.96;94958.50;10525097;28;2008;-61
2023/12/23 06:46:25;;;;;;;;;;;;;;;19.95;32.93;94958.69;10520854;28;1919;-60
2023/12/23 06:51:25;;;;;;;;;;;;;;;19.98;33.03;94959.97;10524994;28;1834;-61
2023/12/23 06:56:26;;;;;;;;;;;;;;;19.96;32.65;94952.38;10518658;28;1853;-61
2023/12/23 07:01:34;;;;;;;;;;;;;;;19.96;32.73;94948.94;10510761;28;1978;-59
2023/12/23 07:06:35;;;;;;;;;;;;;;;19.95;33.00;94942.13;10521360;28;1987;-59
2023/12/23 07:11:35;;;;;;;;;;;;;;;19.95;32.88;94931.59;10534740;28;5089;-59
2023/12/23 07:16:35;;;;;;;;;;;;;;;19.97;32.65;94937.38;10512469;28;2158;-58
2023/12/23 07:21:35;;;;;;;;;;;;;;;19.98;32.92;94949.44;10529907;28;2024;-59
2023/12/23 07:26:36;;;;;;;;;;;;;;;19.98;32.73;94941.56;10520924;28;2212;-60
2023/12/23 07:31:36;;;;;;;;;;;;;;;20.03;32.78;94944.13;10504780;28;1855;-57
2023/12/23 07:36:36;;;;;;;;;;;;;;;20.05;32.99;94947.22;10505235;28;1869;-59
2023/12/23 07:41:36;;;;;;;;;;;;;;;20.10;32.96;94944.50;10526630;28;1977;-61
2023/12/23 07:46:37;;;;;;;;;;;;;;;20.17;33.07;94934.38;10523611;28;2027;-60
2023/12/23 07:51:37;;;;;;;;;;;;;;;20.20;32.91;94934.63;10524073;28;1829;-61
2023/12/23 07:56:37;;;;;;;;;;;;;;;20.23;33.02;94938.53;10521477;28;1890;-61
2023/12/23 08:01:46;;;;;;;;;;;;;;;20.31;32.98;94940.47;10516506;28;1967;-61
2023/12/23 08:06:47;;;;;;;;;;;;;;;20.35;32.85;94935.41;10521218;28;1957;-59
2023/12/23 08:11:47;;;;;;;;;;;;;;;20.37;32.81;94965.63;10523142;28;5960;-59
2023/12/23 08:16:47;;;;;;;;;;;;;;;20.38;32.80;94932.97;10519245;28;1992;-59
2023/12/23 08:21:48;;;;;;;;;;;;;;;20.42;32.86;94943.72;10517531;28;2269;-58
2023/12/23 08:26:48;;;;;;;;;;;;;;;20.45;32.81;94930.75;10511904;28;2124;-58
2023/12/23 08:31:48;;;;;;;;;;;;;;;20.48;32.91;94929.38;10512975;28;1798;-60
2023/12/23 08:36:49;;;;;;;;;;;;;;;20.52;33.20;94923.25;10513109;28;1928;-63
2023/12/23 08:41:49;;;;;;;;;;;;;;;20.53;32.98;94937.97;10520038;28;2032;-61
2023/12/23 08:46:50;;;;;;;;;;;;;;;20.54;33.01;94922.94;10510214;28;1871;-61
2023/12/23 08:51:50;;;;;;;;;;;;;;;20.60;32.94;94919.13;10474548;28;1925;-61
2023/12/23 08:56:50;;;;;;;;;;;;;;;20.57;32.88;94925.75;10499695;28;1888;-59
2023/12/23 09:01:51;;;;;;;;;;;;;;;20.56;32.91;94920.81;10512906;28;2048;-62
2023/12/23 09:06:51;;;;;;;;;;;;;;;20.59;32.98;94928.88;10512658;28;1966;-62
2023/12/23 09:11:51;;;;;;;;;;;;;;;20.59;32.72;94907.81;10517228;28;4982;-62
2023/12/23 09:16:51;;;;;;;;;;;;;;;20.58;32.68;94926.56;10513558;28;1906;-61
2023/12/23 09:22:10;;;;;;;;;;;;;;;20.60;32.57;94932.31;10508014;28;1898;-62
2023/12/23 09:38:26;;;;;;;;;;;;;;;20.63;32.85;94934.38;10509760;28;3048;-61
2023/12/23 09:43:26;;;;;;;;;;;;;;;20.67;32.76;94937.97;10518756;28;1949;-63
2023/12/23 09:59:42;;;;;;;;;;;;;;;20.69;32.77;94904.97;10460874;28;1987;-62
2023/12/23 10:04:42;;;;;;;;;;;;;;;20.72;32.86;94920.22;10484329;28;1912;-59
2023/12/23 10:09:42;;;;;;;;;;;;;;;20.72;32.83;94919.41;10477452;28;1960;-60
2023/12/23 10:14:44;;;;;;;;;;;;;;;20.70;32.98;94888.13;10460585;28;5054;-59
2023/12/23 10:19:46;;;;;;;;;;;;;;;20.70;32.70;94914.47;10472462;28;1989;-60
2023/12/23 10:24:46;;;;;;;;;;;;;;;20.69;33.20;94904.97;10479518;28;2050;-68
2023/12/23 10:29:48;;;;;;;;;;;;;;;20.70;33.47;94893.38;10475797;28;1954;-66
2023/12/23 10:34:49;;;;;;;;;;;;;;;20.71;33.36;94899.44;10471049;28;1958;-67
2023/12/23 10:39:50;;;;;;;;;;;;;;;20.70;33.94;94898.66;10454486;28;2607;-68
2023/12/23 10:44:52;;;;;;;;;;;;;;;20.63;34.19;94895.63;10454024;28;1923;-69
2023/12/23 10:49:53;;;;;;;;;;;;;;;20.64;33.91;94905.09;10458981;28;1899;-70
2023/12/23 10:54:53;;;;;;;;;;;;;;;20.58;34.13;94882.59;10470531;28;1982;-70
2023/12/23 10:59:53;;;;;;;;;;;;;;;20.56;33.72;94886.56;10454637;28;1981;-71
2023/12/23 11:04:54;;;;;;;;;;;;;;;20.54;33.40;94899.25;10472688;28;1944;-68
2023/12/23 11:09:54;;;;;;;;;;;;;;;20.49;33.92;94899.34;10479794;28;1978;-67
2023/12/23 11:14:54;;;;;;;;;;;;;;;20.45;33.84;94891.25;10459409;28;5724;-69
2023/12/23 11:19:58;;;;;;;;;;;;;;;20.34;34.50;94913.56;10477930;28;2140;-67
2023/12/23 11:24:58;;;;;;;;;;;;;;;20.40;34.20;94901.09;10488415;28;2005;-68
2023/12/23 11:30:02;;;;;;;;;;;;;;;20.39;34.11;94894.28;10481626;28;1879;-67
2023/12/23 11:35:03;;;;;;;;;;;;;;;20.30;34.02;94899.44;10484894;28;2405;-68
2023/12/23 11:40:03;;;;;;;;;;;;;;;20.28;33.78;94896.31;10479458;28;2042;-68
2023/12/23 11:45:04;;;;;;;;;;;;;;;20.19;33.78;94888.34;10476944;28;1990;-68
2023/12/23 11:50:05;;;;;;;;;;;;;;;20.13;33.79;94865.75;10460165;28;2046;-67
2023/12/23 11:55:05;;;;;;;;;;;;;;;20.01;33.97;94909.44;10477088;28;1891;-67
2023/12/23 12:00:07;;;;;;;;;;;;;;;19.90;34.42;94916.69;10460479;28;2020;-68
2023/12/23 12:05:07;;;;;;;;;;;;;;;19.81;34.65;94915.00;10487627;28;1907;-68
2023/12/23 12:10:07;;;;;;;;;;;;;;;19.86;33.93;94917.56;10476940;28;1950;-67
2023/12/23 12:15:07;;;;;;;;;;;;;;;19.85;33.85;94916.78;10477232;28;6080;-68
2023/12/23 12:20:08;;;;;;;;;;;;;;;19.78;34.11;94940.06;10476633;28;1967;-69
2023/12/23 12:25:08;;;;;;;;;;;;;;;19.76;33.89;94947.44;10480408;28;1879;-67
2023/12/23 12:30:09;;;;;;;;;;;;;;;19.76;33.60;94928.25;10479059;28;1943;-68
2023/12/23 12:35:10;;;;;;;;;;;;;;;19.69;33.81;94952.28;10473141;28;1925;-68
2023/12/23 12:40:11;;;;;;;;;;;;;;;19.66;33.80;94907.38;10478821;28;2194;-68
2023/12/23 12:45:11;;;;;;;;;;;;;;;19.62;33.73;94940.56;10478340;28;1898;-67
2023/12/23 12:50:11;;;;;;;;;;;;;;;19.60;33.76;94950.59;10479974;28;1955;-68
2023/12/23 12:55:11;;;;;;;;;;;;;;;19.55;34.17;94956.69;10461005;28;1944;-68
2023/12/23 13:00:15;;;;;;;;;;;;;;;19.54;33.93;94975.41;10465400;28;1922;-68
2023/12/23 13:05:15;;;;;;;;;;;;;;;19.49;34.02;94948.09;10480732;28;1992;-67
2023/12/23 13:10:15;;;;;;;;;;;;;;;19.47;33.80;94952.09;10469512;28;1852;-68
2023/12/23 13:15:15;;;;;;;;;;;;;;;19.45;33.77;94973.38;10472003;28;1871;-68
2023/12/23 13:20:16;;;;;;;;;;;;;;;19.41;33.83;94954.00;10481171;28;1977;-68
2023/12/23 13:25:16;;;;;;;;;;;;;;;19.40;33.95;94983.19;10475313;28;1971;-67
2023/12/23 13:30:16;;;;;;;;;;;;;;;19.35;33.95;95018.19;10466617;28;1874;-68
2023/12/23 13:35:18;;;;;;;;;;;;;;;19.30;34.03;95010.38;10478136;28;2174;-67
2023/12/23 13:40:18;;;;;;;;;;;;;;;19.29;34.04;94998.28;10481063;28;1935;-66
2023/12/23 13:45:18;;;;;;;;;;;;;;;19.26;34.09;94972.59;10476932;28;1966;-67
2023/12/23 13:50:19;;;;;;;;;;;;;;;19.25;33.98;95018.31;10479838;28;2050;-69
2023/12/23 13:55:19;;;;;;;;;;;;;;;19.22;33.87;95020.72;10468286;28;1840;-69
2023/12/23 14:00:19;;;;;;;;;;;;;;;19.19;34.19;95027.31;10484492;28;1981;-68
2023/12/23 14:05:20;;;;;;;;;;;;;;;19.16;34.09;95033.16;10461617;28;2245;-68
2023/12/23 14:10:20;;;;;;;;;;;;;;;19.13;33.93;95046.84;10483508;28;2051;-69
2023/12/23 14:15:20;;;;;;;;;;;;;;;19.13;33.92;95044.22;10472907;28;5037;-68
2023/12/23 14:20:21;;;;;;;;;;;;;;;19.10;34.00;95052.63;10479242;28;2241;-69
2023/12/23 14:25:23;;;;;;;;;;;;;;;19.07;34.01;95042.69;10482829;28;2069;-67
2023/12/23 14:30:23;;;;;;;;;;;;;;;19.02;34.31;95024.34;10485637;28;1955;-66
2023/12/23 14:35:23;;;;;;;;;;;;;;;19.02;34.13;95020.97;10466713;28;1923;-66
2023/12/23 14:40:23;;;;;;;;;;;;;;;18.99;34.22;95034.66;10476060;28;1906;-66
2023/12/23 14:45:26;;;;;;;;;;;;;;;18.94;34.35;95051.25;10479955;28;2558;-66
2023/12/23 14:50:26;;;;;;;;;;;;;;;18.93;34.29;95065.44;10485364;28;2169;-68
2023/12/23 14:55:27;;;;;;;;;;;;;;;18.92;34.28;95068.38;10490848;28;1883;-67
2023/12/23 15:00:27;;;;;;;;;;;;;;;18.87;34.16;95084.16;10491607;28;1983;-66
2023/12/23 15:05:27;;;;;;;;;;;;;;;18.87;34.27;95090.19;10471983;28;1947;-67
2023/12/23 15:10:28;;;;;;;;;;;;;;;18.86;34.33;95104.38;10485781;28;1898;-68
2023/12/23 15:15:28;;;;;;;;;;;;;;;18.84;34.25;95116.22;10467524;28;5009;-67
2023/12/23 15:20:28;;;;;;;;;;;;;;;18.81;34.30;95127.28;10492740;28;2012;-66
2023/12/23 15:25:28;;;;;;;;;;;;;;;18.80;34.36;95125.72;10484268;28;2275;-66
2023/12/23 15:30:29;;;;;;;;;;;;;;;18.78;34.37;95126.00;10479670;28;1967;-67
2023/12/23 15:35:29;;;;;;;;;;;;;;;18.77;34.16;95123.66;10485896;28;1929;-67
2023/12/23 15:40:29;;;;;;;;;;;;;;;18.75;34.51;95123.16;10480888;28;2149;-67
2023/12/23 15:45:29;;;;;;;;;;;;;;;18.73;34.19;95127.88;10486567;28;2260;-66
2023/12/23 15:50:30;;;;;;;;;;;;;;;18.67;34.60;95127.13;10464741;28;2186;-67
2023/12/23 15:55:31;;;;;;;;;;;;;;;18.66;34.58;95136.06;10482642;28;2003;-67
2023/12/23 16:00:31;;;;;;;;;;;;;;;18.65;34.30;95145.78;10484014;28;1975;-66
2023/12/23 16:05:31;;;;;;;;;;;;;;;18.64;34.42;95177.56;10484462;28;1969;-66
2023/12/23 16:10:32;;;;;;;;;;;;;;;18.62;34.54;95179.69;10499603;28;1786;-66
2023/12/23 16:15:32;;;;;;;;;;;;;;;18.60;34.43;95179.97;10482553;28;5059;-67
2023/12/23 16:20:32;;;;;;;;;;;;;;;18.58;34.54;95205.72;10487991;28;2041;-69
2023/12/23 16:25:33;;;;;;;;;;;;;;;18.54;34.80;95209.16;10481741;28;2281;-67
2023/12/23 16:30:33;;;;;;;;;;;;;;;18.54;34.71;95217.81;10478519;28;1990;-67
2023/12/23 16:35:33;;;;;;;;;;;;;;;18.54;34.70;95217.03;10483604;28;1987;-67
2023/12/23 16:40:33;;;;;;;;;;;;;;;18.52;34.48;95225.19;10481621;28;2577;-67
2023/12/23 16:45:34;;;;;;;;;;;;;;;18.48;34.75;95229.41;10468479;28;2093;-67
2023/12/23 16:50:34;;;;;;;;;;;;;;;18.46;34.77;95200.03;10475064;28;1974;-67
2023/12/23 16:55:34;;;;;;;;;;;;;;;18.48;34.50;95228.63;10472508;28;1955;-67
2023/12/23 17:00:34;;;;;;;;;;;;;;;18.45;34.70;95235.19;10478785;28;1913;-67
2023/12/23 17:05:35;;;;;;;;;;;;;;;18.43;34.78;95218.09;10457212;28;1979;-67
2023/12/23 17:10:35;;;;;;;;;;;;;;;18.42;34.71;95240.94;10479229;28;1970;-67
2023/12/23 17:15:35;;;;;;;;;;;;;;;18.42;34.76;95234.91;10458618;28;5035;-66
2023/12/23 17:20:35;;;;;;;;;;;;;;;18.40;34.77;95252.78;10483969;28;1905;-67
2023/12/23 17:25:36;;;;;;;;;;;;;;;18.39;34.64;95251.19;10477301;28;2017;-67
2023/12/23 17:30:36;;;;;;;;;;;;;;;18.37;34.69;95255.94;10461989;28;1874;-67
2023/12/23 17:35:36;;;;;;;;;;;;;;;18.37;34.67;95261.97;10489850;28;2375;-67
2023/12/23 17:40:37;;;;;;;;;;;;;;;18.34;34.83;95270.38;10481238;28;1917;-67
2023/12/23 17:45:37;;;;;;;;;;;;;;;18.35;34.71;95271.16;10489642;28;1894;-67
2023/12/23 17:50:37;;;;;;;;;;;;;;;18.33;34.73;95278.50;10493284;28;1875;-67
2023/12/23 17:55:38;;;;;;;;;;;;;;;18.31;34.75;95278.78;10477135;28;1982;-67
2023/12/23 18:00:38;;;;;;;;;;;;;;;18.29;34.83;95293.22;10485005;28;1934;-67
2023/12/23 18:05:38;;;;;;;;;;;;;;;18.28;34.72;95286.44;10483773;28;1873;-67
2023/12/23 18:10:41;;;;;;;;;;;;;;;18.28;34.74;95299.53;10494341;28;1908;-67
2023/12/23 18:15:41;;;;;;;;;;;;;;;18.26;34.77;95305.03;10470958;28;5024;-67
2023/12/23 18:20:41;;;;;;;;;;;;;;;18.24;34.84;95306.34;10483410;28;1962;-68
2023/12/23 18:25:43;;;;;;;;;;;;;;;18.23;34.70;95310.84;10493497;28;2012;-66
2023/12/23 18:30:44;;;;;;;;;;;;;;;18.22;34.74;95319.75;10495478;28;2396;-67
2023/12/23 18:35:44;;;;;;;;;;;;;;;18.21;34.68;95306.91;10492485;28;1866;-67
2023/12/23 18:40:44;;;;;;;;;;;;;;;18.20;34.89;95326.31;10489189;28;1973;-67
2023/12/23 18:45:45;;;;;;;;;;;;;;;18.18;34.84;95316.09;10491453;28;2022;-67
2023/12/23 18:50:45;;;;;;;;;;;;;;;18.19;34.90;95330.00;10496832;28;2015;-66
2023/12/23 18:55:45;;;;;;;;;;;;;;;18.16;34.77;95317.41;10477481;28;2039;-67
2023/12/23 19:00:45;;;;;;;;;;;;;;;18.14;34.84;95320.31;10479417;28;1940;-67
2023/12/23 19:05:46;;;;;;;;;;;;;;;18.14;34.77;95325.56;10485656;28;1912;-67
2023/12/23 19:10:46;;;;;;;;;;;;;;;18.12;34.99;95313.75;10488673;28;1882;-67
2023/12/23 19:15:46;;;;;;;;;;;;;;;18.12;34.80;95319.00;10496365;28;2073;-64
2023/12/23 19:20:47;;;;;;;;;;;;;;;18.10;34.98;95332.38;10480245;28;2020;-67
2023/12/23 19:25:47;;;;;;;;;;;;;;;18.09;34.95;95335.28;10468650;28;1885;-65
2023/12/23 19:30:47;;;;;;;;;;;;;;;18.09;34.85;95364.13;10489653;28;1935;-65
2023/12/23 19:35:47;;;;;;;;;;;;;;;18.07;34.95;95340.00;10482389;28;2033;-66
2023/12/23 19:40:48;;;;;;;;;;;;;;;18.05;34.92;95347.38;10484488;28;1902;-69
2023/12/23 19:45:48;;;;;;;;;;;;;;;18.05;34.95;95339.50;10474919;28;1912;-66
2023/12/23 19:50:48;;;;;;;;;;;;;;;18.03;34.83;95342.41;10490614;28;1948;-67
2023/12/23 19:55:49;;;;;;;;;;;;;;;18.04;34.84;95335.28;10477214;28;2228;-66
2023/12/23 20:00:49;;;;;;;;;;;;;;;18.02;34.99;95334.78;10462280;28;1979;-66
2023/12/23 20:05:49;;;;;;;;;;;;;;;17.99;34.99;95343.94;10483679;28;1892;-66
2023/12/23 20:10:49;;;;;;;;;;;;;;;18.00;34.86;95342.13;10484149;28;1950;-66
2023/12/23 20:15:50;;;;;;;;;;;;;;;17.97;34.94;95337.44;10483611;28;4887;-65
2023/12/23 20:20:50;;;;;;;;;;;;;;;17.96;34.98;95375.19;10480173;28;1905;-66
2023/12/23 20:25:50;;;;;;;;;;;;;;;17.95;34.76;95366.50;10470977;28;2103;-66
2023/12/23 20:30:50;;;;;;;;;;;;;;;17.95;35.02;95355.25;10477506;28;2034;-66
2023/12/23 20:35:51;;;;;;;;;;;;;;;17.94;35.01;95354.47;10473508;28;2034;-66
2023/12/23 20:40:51;;;;;;;;;;;;;;;17.94;34.95;95348.44;10459658;28;2077;-68
2023/12/23 20:45:51;;;;;;;;;;;;;;;17.92;34.90;95334.81;10472479;28;2390;-69
2023/12/23 20:50:52;;;;;;;;;;;;;;;17.88;35.10;95330.09;10481301;28;2068;-69
2023/12/23 20:55:53;;;;;;;;;;;;;;;17.90;34.93;95348.19;10472127;28;1885;-69
2023/12/23 21:00:53;;;;;;;;;;;;;;;17.88;35.05;95355.53;10474513;28;1953;-66
2023/12/23 21:05:53;;;;;;;;;;;;;;;17.85;34.92;95333.25;10482586;28;1864;-69
2023/12/23 21:10:54;;;;;;;;;;;;;;;17.85;35.04;95337.69;10474238;28;1939;-67
2023/12/23 21:15:54;;;;;;;;;;;;;;;17.83;34.97;95351.09;10471981;28;4959;-67
2023/12/23 21:20:54;;;;;;;;;;;;;;;17.85;34.96;95346.34;10451785;28;2022;-69
2023/12/23 21:25:54;;;;;;;;;;;;;;;17.83;34.91;95364.19;10467686;28;2344;-68
2023/12/23 21:30:55;;;;;;;;;;;;;;;17.83;35.01;95358.16;10476359;28;2070;-68
2023/12/23 21:35:55;;;;;;;;;;;;;;;17.82;34.91;95372.31;10465017;28;2062;-68
2023/12/23 21:40:55;;;;;;;;;;;;;;;17.81;35.00;95353.19;10451076;28;2062;-68
2023/12/23 21:45:58;;;;;;;;;;;;;;;17.79;34.88;95363.16;10476306;28;2287;-67
2023/12/23 21:50:58;;;;;;;;;;;;;;;17.77;34.94;95367.88;10438058;28;1951;-68
2023/12/23 21:55:58;;;;;;;;;;;;;;;17.78;34.63;95371.28;10469841;28;2326;-68
2023/12/23 22:00:59;;;;;;;;;;;;;;;17.75;35.02;95385.69;10457313;28;2184;-68
2023/12/23 22:05:59;;;;;;;;;;;;;;;17.75;34.94;95361.31;10459884;28;1952;-66
2023/12/23 22:11:00;;;;;;;;;;;;;;;17.74;34.89;95357.91;10475644;28;2165;-67
2023/12/23 22:16:00;;;;;;;;;;;;;;;17.73;34.92;95358.97;10474502;28;4968;-66
2023/12/23 22:21:00;;;;;;;;;;;;;;;17.72;35.00;95367.09;10467736;28;1985;-66
2023/12/23 22:26:00;;;;;;;;;;;;;;;17.71;34.91;95368.13;10452385;28;2095;-67
2023/12/23 22:31:01;;;;;;;;;;;;;;;17.70;34.78;95385.69;10474971;28;2049;-67
2023/12/23 22:36:03;;;;;;;;;;;;;;;17.68;34.99;95387.78;10474089;28;1895;-67
2023/12/23 22:41:04;;;;;;;;;;;;;;;17.68;34.85;95387.78;10477514;28;1992;-66
2023/12/23 22:46:04;;;;;;;;;;;;;;;17.67;34.63;95391.47;10474611;28;1903;-70
2023/12/23 22:51:06;;;;;;;;;;;;;;;17.66;34.81;95395.13;10468896;28;1926;-68
2023/12/23 22:56:06;;;;;;;;;;;;;;;17.65;34.91;95372.59;10477205;28;1903;-68
2023/12/23 23:01:12;;;;;;;;;;;;;;;17.64;34.88;95349.28;10463151;28;2031;-67
2023/12/23 23:06:12;;;;;;;;;;;;;;;17.64;34.80;95365.00;10483570;28;1980;-68
2023/12/23 23:11:13;;;;;;;;;;;;;;;17.62;34.73;95373.13;10478099;28;1944;-68
2023/12/23 23:16:15;;;;;;;;;;;;;;;17.60;34.83;95369.19;10479307;28;4872;-68
2023/12/23 23:21:16;;;;;;;;;;;;;;;17.59;34.82;95363.19;10486734;28;1963;-66
2023/12/23 23:26:16;;;;;;;;;;;;;;;17.58;34.77;95372.06;10489321;28;1864;-68
2023/12/23 23:31:16;;;;;;;;;;;;;;;17.58;34.74;95384.38;10489536;28;1883;-67
2023/12/23 23:36:16;;;;;;;;;;;;;;;17.56;34.83;95368.13;10468537;28;2034;-69
2023/12/23 23:41:17;;;;;;;;;;;;;;;17.56;34.89;95371.56;10479972;28;2218;-68
2023/12/23 23:46:17;;;;;;;;;;;;;;;17.55;34.96;95353.47;10457118;28;1892;-70
2023/12/23 23:51:18;;;;;;;;;;;;;;;17.54;34.90;95370.25;10477357;28;2113;-69
2023/12/23 23:56:18;;;;;;;;;;;;;;;17.54;34.69;95372.84;10478784;28;2090;-68
